Time;durP1;ratioP1;P1;durP2;ratioP2;P2;SDS_P1;SDS_P2;PMS_P1;PMS_P2;Temp;Humidity;BMP_temperature;BMP_pressure;BME280_temperature;BME280_humidity;BME280_pressure;Samples;Min_cycle;Max_cycle;Signal;HPM_P1;HPM_P2
2022/10/17 00:00:43;;;;;;;;;;;;;;;;;;5010135;28;1557;-72
2022/10/17 00:03:09;;;;;;;;;;;;;;;;;;5012013;28;952;-72
2022/10/17 00:05:38;;;;;;;;;;;;;;;;;;5012000;28;837;-72
2022/10/17 00:08:03;;;;;;;;;;;;;;;;;;5011225;28;1892;-72
2022/10/17 00:10:28;;;;;;;;;;;;;;;;;;4993764;28;1649;-73
2022/10/17 00:12:54;;;;;;;;;;;;;;;;;;5024529;28;1553;-73
2022/10/17 00:15:20;;;;;;;;;;;;;;;;;;5013840;28;1173;-72
2022/10/17 00:17:45;;;;;;;;;;;;;;;;;;5031907;28;1013;-72
2022/10/17 00:20:11;;;;;;;;;;;;;;;;;;5031033;28;1609;-72
2022/10/17 00:22:36;;;;;;;;;;;;;;;;;;5031386;28;1044;-72
2022/10/17 00:25:01;;;;;;;;;;;;;;;;;;5031130;28;845;-73
2022/10/17 00:27:27;;;;;;;;;;;;;;;;;;5031192;28;1965;-72
2022/10/17 00:29:52;;;;;;;;;;;;;;;;;;5030722;28;1063;-72
2022/10/17 00:32:18;;;;;;;;;;;;;;;;;;4997156;28;1637;-72
2022/10/17 00:34:43;;;;;;;;;;;;;;;;;;5031784;28;963;-73
2022/10/17 00:37:09;;;;;;;;;;;;;;;;;;5031268;28;916;-73
2022/10/17 00:39:34;;;;;;;;;;;;;;;;;;5031146;28;884;-72
2022/10/17 00:41:59;;;;;;;;;;;;;;;;;;5030706;28;1573;-72
2022/10/17 00:44:28;;;;;;;;;;;;;;;;;;5013627;28;1180;-72
2022/10/17 00:46:53;;;;;;;;;;;;;;;;;;5030784;28;1957;-72
2022/10/17 00:49:20;;;;;;;;;;;;;;;;;;5031865;28;865;-72
2022/10/17 00:51:45;;;;;;;;;;;;;;;;;;5031339;28;1576;-72
2022/10/17 00:54:11;;;;;;;;;;;;;;;;;;5014018;28;1613;-72
2022/10/17 00:56:39;;;;;;;;;;;;;;;;;;5032053;28;887;-72
2022/10/17 00:59:05;;;;;;;;;;;;;;;;;;5031649;28;908;-73
2022/10/17 01:01:31;;;;;;;;;;;;;;;;;;5014191;28;1228;-73
2022/10/17 01:03:56;;;;;;;;;;;;;;;;;;5031414;28;1596;-72
2022/10/17 01:06:22;;;;;;;;;;;;;;;;;;5032025;28;1910;-72
2022/10/17 01:08:47;;;;;;;;;;;;;;;;;;5017594;28;1269;-72
2022/10/17 01:11:20;;;;;;;;;;;;;;;;;;5015681;28;3610;-72
2022/10/17 01:13:53;;;;;;;;;;;;;;;;;;5048156;28;1658;-72
2022/10/17 01:16:38;;;;;;;;;;;;;;;;;;5034570;28;899;-73
2022/10/17 01:19:24;;;;;;;;;;;;;;;;;;5016555;28;1276;-73
2022/10/17 01:21:53;;;;;;;;;;;;;;;;;;5017040;28;1296;-73
2022/10/17 01:24:27;;;;;;;;;;;;;;;;;;5013044;28;1601;-73
2022/10/17 01:27:13;;;;;;;;;;;;;;;;;;5015976;28;1942;-73
2022/10/17 01:29:57;;;;;;;;;;;;;;;;;;5028924;28;1371;-73
2022/10/17 01:32:37;;;;;;;;;;;;;;;;;;5034317;28;972;-73
2022/10/17 01:35:10;;;;;;;;;;;;;;;;;;5033668;28;1683;-72
2022/10/17 01:37:35;;;;;;;;;;;;;;;;;;5016816;28;1162;-72
2022/10/17 01:40:10;;;;;;;;;;;;;;;;;;5033515;28;921;-72
2022/10/17 01:42:40;;;;;;;;;;;;;;;;;;5016795;28;1111;-73
2022/10/17 01:45:09;;;;;;;;;;;;;;;;;;5033555;28;1565;-72
2022/10/17 01:47:34;;;;;;;;;;;;;;;;;;5015859;28;1906;-73
2022/10/17 01:50:03;;;;;;;;;;;;;;;;;;5032148;28;1129;-72
2022/10/17 01:52:36;;;;;;;;;;;;;;;;;;5030586;28;1268;-72
2022/10/17 01:55:09;;;;;;;;;;;;;;;;;;5030917;28;1240;-72
2022/10/17 01:57:37;;;;;;;;;;;;;;;;;;5014407;28;966;-73
2022/10/17 02:00:05;;;;;;;;;;;;;;;;;;5014233;28;1281;-73
2022/10/17 02:02:31;;;;;;;;;;;;;;;;;;5015084;28;928;-73
2022/10/17 02:04:56;;;;;;;;;;;;;;;;;;5012478;28;1291;-73
2022/10/17 02:07:21;;;;;;;;;;;;;;;;;;5032501;28;1910;-72
2022/10/17 02:09:47;;;;;;;;;;;;;;;;;;5032881;28;912;-73
2022/10/17 02:12:42;;;;;;;;;;;;;;;;;;5032628;28;848;-73
2022/10/17 02:15:30;;;;;;;;;;;;;;;;;;5040023;28;1596;-73
2022/10/17 02:17:59;;;;;;;;;;;;;;;;;;5011702;28;1593;-73
2022/10/17 02:20:27;;;;;;;;;;;;;;;;;;5014134;28;1035;-73
2022/10/17 02:22:53;;;;;;;;;;;;;;;;;;4996022;28;1218;-73
2022/10/17 02:25:37;;;;;;;;;;;;;;;;;;4996388;28;1292;-73
2022/10/17 02:28:14;;;;;;;;;;;;;;;;;;5027119;28;1969;-73
2022/10/17 02:30:46;;;;;;;;;;;;;;;;;;5034200;28;1216;-73
2022/10/17 02:33:14;;;;;;;;;;;;;;;;;;5034301;28;904;-73
2022/10/17 02:35:42;;;;;;;;;;;;;;;;;;5034985;28;825;-73
2022/10/17 02:38:10;;;;;;;;;;;;;;;;;;5015975;28;1667;-73
2022/10/17 02:40:36;;;;;;;;;;;;;;;;;;5033808;28;864;-73
2022/10/17 02:43:01;;;;;;;;;;;;;;;;;;5015095;28;1324;-73
2022/10/17 02:45:28;;;;;;;;;;;;;;;;;;5015398;28;1019;-73
2022/10/17 02:48:02;;;;;;;;;;;;;;;;;;5014498;28;1914;-73
2022/10/17 02:50:51;;;;;;;;;;;;;;;;;;5015219;28;1161;-73
2022/10/17 02:53:23;;;;;;;;;;;;;;;;;;5006711;28;1173;-73
2022/10/17 02:55:52;;;;;;;;;;;;;;;;;;5015044;28;1130;-73
2022/10/17 02:58:22;;;;;;;;;;;;;;;;;;5012674;28;3602;-73
2022/10/17 03:00:49;;;;;;;;;;;;;;;;;;5015082;28;1222;-73
2022/10/17 03:03:19;;;;;;;;;;;;;;;;;;5014663;28;1126;-74
2022/10/17 03:05:44;;;;;;;;;;;;;;;;;;5032768;28;901;-73
2022/10/17 03:08:10;;;;;;;;;;;;;;;;;;5014446;28;1902;-73
2022/10/17 03:10:35;;;;;;;;;;;;;;;;;;5032302;28;1564;-73
2022/10/17 03:13:01;;;;;;;;;;;;;;;;;;5033068;28;833;-73
2022/10/17 03:15:26;;;;;;;;;;;;;;;;;;5015078;28;1315;-73
2022/10/17 03:17:51;;;;;;;;;;;;;;;;;;5033938;28;893;-73
2022/10/17 03:20:17;;;;;;;;;;;;;;;;;;5032483;28;1525;-73
2022/10/17 03:22:42;;;;;;;;;;;;;;;;;;5016055;28;1254;-73
2022/10/17 03:25:08;;;;;;;;;;;;;;;;;;5015110;28;1141;-74
2022/10/17 03:27:33;;;;;;;;;;;;;;;;;;5032953;28;1910;-73
2022/10/17 03:29:58;;;;;;;;;;;;;;;;;;5011440;28;1546;-73
2022/10/17 03:32:23;;;;;;;;;;;;;;;;;;5028994;28;826;-74
2022/10/17 03:34:49;;;;;;;;;;;;;;;;;;5029077;28;892;-73
2022/10/17 03:37:14;;;;;;;;;;;;;;;;;;5011862;28;1404;-73
2022/10/17 03:39:39;;;;;;;;;;;;;;;;;;5013759;28;900;-73
2022/10/17 03:42:04;;;;;;;;;;;;;;;;;;5047457;28;1694;-73
2022/10/17 03:44:30;;;;;;;;;;;;;;;;;;5033613;28;841;-73
2022/10/17 03:46:56;;;;;;;;;;;;;;;;;;5032611;28;1975;-73
2022/10/17 03:49:21;;;;;;;;;;;;;;;;;;5033240;28;848;-71
2022/10/17 03:51:47;;;;;;;;;;;;;;;;;;5031626;28;1576;-72
2022/10/17 03:54:15;;;;;;;;;;;;;;;;;;5032596;28;825;-72
2022/10/17 03:56:41;;;;;;;;;;;;;;;;;;4998486;28;1228;-73
2022/10/17 03:59:06;;;;;;;;;;;;;;;;;;4998262;28;1379;-69
2022/10/17 04:01:32;;;;;;;;;;;;;;;;;;5031266;28;1561;-69
2022/10/17 04:03:57;;;;;;;;;;;;;;;;;;5030314;28;888;-68
2022/10/17 04:06:22;;;;;;;;;;;;;;;;;;5014119;28;1902;-68
2022/10/17 04:08:48;;;;;;;;;;;;;;;;;;5031776;28;869;-68
2022/10/17 04:11:15;;;;;;;;;;;;;;;;;;5031163;28;1635;-68
2022/10/17 04:13:40;;;;;;;;;;;;;;;;;;5011213;28;1640;-69
2022/10/17 04:16:07;;;;;;;;;;;;;;;;;;5011499;28;956;-69
2022/10/17 04:18:33;;;;;;;;;;;;;;;;;;5011807;28;1000;-69
2022/10/17 04:21:02;;;;;;;;;;;;;;;;;;4993879;28;1232;-72
2022/10/17 04:23:28;;;;;;;;;;;;;;;;;;5010029;28;1624;-72
2022/10/17 04:25:57;;;;;;;;;;;;;;;;;;5015869;28;1300;-72
2022/10/17 04:28:23;;;;;;;;;;;;;;;;;;5014975;28;1906;-73
2022/10/17 04:30:58;;;;;;;;;;;;;;;;;;5012220;28;1369;-74
2022/10/17 04:33:24;;;;;;;;;;;;;;;;;;5044196;28;1670;-73
2022/10/17 04:35:59;;;;;;;;;;;;;;;;;;5012173;28;1280;-74
2022/10/17 04:38:25;;;;;;;;;;;;;;;;;;5013399;28;971;-73
2022/10/17 04:40:50;;;;;;;;;;;;;;;;;;5013879;28;822;-74
2022/10/17 04:43:15;;;;;;;;;;;;;;;;;;5049633;28;1616;-72
2022/10/17 04:45:41;;;;;;;;;;;;;;;;;;5016148;28;3514;-73
2022/10/17 04:48:06;;;;;;;;;;;;;;;;;;5032430;28;1914;-73
2022/10/17 04:50:31;;;;;;;;;;;;;;;;;;5036555;28;1394;-73
2022/10/17 04:52:57;;;;;;;;;;;;;;;;;;5018637;28;1572;-74
2022/10/17 04:55:23;;;;;;;;;;;;;;;;;;5020442;28;1101;-74
2022/10/17 04:57:48;;;;;;;;;;;;;;;;;;5041626;28;1027;-73
2022/10/17 05:00:19;;;;;;;;;;;;;;;;;;5018594;28;987;-73
2022/10/17 05:02:45;;;;;;;;;;;;;;;;;;5027996;28;1576;-74
2022/10/17 05:05:10;;;;;;;;;;;;;;;;;;5031478;28;1247;-73
2022/10/17 05:07:38;;;;;;;;;;;;;;;;;;5026506;28;1878;-73
2022/10/17 05:10:07;;;;;;;;;;;;;;;;;;5026110;28;814;-73
2022/10/17 05:12:32;;;;;;;;;;;;;;;;;;5025289;28;1578;-72
2022/10/17 05:14:58;;;;;;;;;;;;;;;;;;5025696;28;1114;-74
2022/10/17 05:17:23;;;;;;;;;;;;;;;;;;5023559;28;1320;-73
2022/10/17 05:19:49;;;;;;;;;;;;;;;;;;5027403;28;975;-73
2022/10/17 05:22:14;;;;;;;;;;;;;;;;;;5024672;28;1620;-73
2022/10/17 05:24:39;;;;;;;;;;;;;;;;;;5045454;28;1585;-72
2022/10/17 05:27:04;;;;;;;;;;;;;;;;;;5027034;28;1949;-72
2022/10/17 05:29:30;;;;;;;;;;;;;;;;;;5026410;28;1177;-73
2022/10/17 05:31:55;;;;;;;;;;;;;;;;;;5011172;28;1252;-72
2022/10/17 05:34:20;;;;;;;;;;;;;;;;;;5026578;28;1652;-74
2022/10/17 05:36:46;;;;;;;;;;;;;;;;;;5044706;28;849;-74
2022/10/17 05:39:18;;;;;;;;;;;;;;;;;;5026492;28;1012;-72
2022/10/17 05:41:43;;;;;;;;;;;;;;;;;;5022113;28;1399;-73
2022/10/17 05:44:09;;;;;;;;;;;;;;;;;;5035754;28;1588;-74
2022/10/17 05:46:34;;;;;;;;;;;;;;;;;;5036348;28;1906;-74
2022/10/17 05:48:59;;;;;;;;;;;;;;;;;;4999459;28;1598;-73
2022/10/17 05:51:27;;;;;;;;;;;;;;;;;;5034578;28;1122;-73
2022/10/17 05:53:52;;;;;;;;;;;;;;;;;;5033861;28;1217;-73
2022/10/17 05:56:19;;;;;;;;;;;;;;;;;;5034174;28;1273;-73
2022/10/17 05:58:44;;;;;;;;;;;;;;;;;;5033241;28;1214;-73
2022/10/17 06:01:13;;;;;;;;;;;;;;;;;;5032234;28;1283;-75
2022/10/17 06:03:38;;;;;;;;;;;;;;;;;;5033319;28;1289;-75
2022/10/17 06:06:13;;;;;;;;;;;;;;;;;;5033089;28;1306;-68
2022/10/17 06:08:39;;;;;;;;;;;;;;;;;;5031687;28;1401;-68
2022/10/17 06:11:04;;;;;;;;;;;;;;;;;;5030954;28;3580;-69
2022/10/17 06:13:30;;;;;;;;;;;;;;;;;;5014917;28;1285;-69
2022/10/17 06:15:55;;;;;;;;;;;;;;;;;;5026214;28;1221;-69
2022/10/17 06:18:21;;;;;;;;;;;;;;;;;;5010762;28;1332;-68
2022/10/17 06:20:49;;;;;;;;;;;;;;;;;;5014676;28;1292;-68
2022/10/17 06:23:14;;;;;;;;;;;;;;;;;;5030910;28;1217;-74
2022/10/17 06:25:39;;;;;;;;;;;;;;;;;;5012524;28;1410;-74
2022/10/17 06:28:05;;;;;;;;;;;;;;;;;;4996266;28;1910;-74
2022/10/17 06:30:30;;;;;;;;;;;;;;;;;;4995674;28;1190;-74
2022/10/17 06:32:55;;;;;;;;;;;;;;;;;;5014511;28;1593;-76
2022/10/17 06:35:21;;;;;;;;;;;;;;;;;;5014752;28;1312;-74
2022/10/17 06:37:46;;;;;;;;;;;;;;;;;;5011962;28;1608;-74
2022/10/17 06:40:14;;;;;;;;;;;;;;;;;;4995667;28;1101;-73
2022/10/17 06:42:39;;;;;;;;;;;;;;;;;;5013987;28;828;-74
2022/10/17 06:45:08;;;;;;;;;;;;;;;;;;5012353;28;1336;-74
2022/10/17 06:47:34;;;;;;;;;;;;;;;;;;5005195;28;1964;-75
2022/10/17 06:49:59;;;;;;;;;;;;;;;;;;4996516;28;1219;-75
2022/10/17 06:52:24;;;;;;;;;;;;;;;;;;4995271;28;1303;-73
2022/10/17 06:54:52;;;;;;;;;;;;;;;;;;5012876;28;1036;-73
2022/10/17 06:57:18;;;;;;;;;;;;;;;;;;5001643;28;1660;-73
2022/10/17 06:59:43;;;;;;;;;;;;;;;;;;5015258;28;1102;-74
2022/10/17 07:02:09;;;;;;;;;;;;;;;;;;5014550;28;1380;-72
2022/10/17 07:04:35;;;;;;;;;;;;;;;;;;5014184;28;1177;-73
2022/10/17 07:07:01;;;;;;;;;;;;;;;;;;5032498;28;1906;-73
2022/10/17 07:09:30;;;;;;;;;;;;;;;;;;5010685;28;1490;-73
2022/10/17 07:11:56;;;;;;;;;;;;;;;;;;4995417;28;1204;-73
2022/10/17 07:14:21;;;;;;;;;;;;;;;;;;4994397;28;1311;-73
2022/10/17 07:16:46;;;;;;;;;;;;;;;;;;5012094;28;1218;-73
2022/10/17 07:19:13;;;;;;;;;;;;;;;;;;5025359;28;1676;-72
2022/10/17 07:21:38;;;;;;;;;;;;;;;;;;4998495;28;1490;-72
2022/10/17 07:24:04;;;;;;;;;;;;;;;;;;5014585;28;1125;-73
2022/10/17 07:26:29;;;;;;;;;;;;;;;;;;5014591;28;1953;-73
2022/10/17 07:28:55;;;;;;;;;;;;;;;;;;5013700;28;1608;-72
2022/10/17 07:31:21;;;;;;;;;;;;;;;;;;5032306;28;1197;-68
2022/10/17 07:33:47;;;;;;;;;;;;;;;;;;5011094;28;1446;-68
2022/10/17 07:36:13;;;;;;;;;;;;;;;;;;5011807;28;1118;-68
2022/10/17 07:38:38;;;;;;;;;;;;;;;;;;5012467;28;1351;-68
2022/10/17 07:41:05;;;;;;;;;;;;;;;;;;5011589;28;959;-69
2022/10/17 07:43:30;;;;;;;;;;;;;;;;;;4995316;28;1059;-69
2022/10/17 07:45:56;;;;;;;;;;;;;;;;;;5018402;28;1446;-69
2022/10/17 07:48:22;;;;;;;;;;;;;;;;;;5013075;28;2007;-68
2022/10/17 07:50:47;;;;;;;;;;;;;;;;;;5013539;28;1299;-68
2022/10/17 07:53:13;;;;;;;;;;;;;;;;;;5013124;28;1294;-68
2022/10/17 07:55:39;;;;;;;;;;;;;;;;;;5029690;28;833;-68
2022/10/17 07:58:04;;;;;;;;;;;;;;;;;;5029724;28;3094;-68
2022/10/17 08:00:29;;;;;;;;;;;;;;;;;;5030857;28;1170;-68
2022/10/17 08:02:55;;;;;;;;;;;;;;;;;;5013376;28;1209;-69
2022/10/17 08:05:20;;;;;;;;;;;;;;;;;;5029546;28;1320;-68
2022/10/17 08:07:46;;;;;;;;;;;;;;;;;;5029709;28;1906;-68
2022/10/17 08:10:12;;;;;;;;;;;;;;;;;;5013014;28;1090;-68
2022/10/17 08:12:38;;;;;;;;;;;;;;;;;;5013325;28;1201;-69
2022/10/17 08:15:04;;;;;;;;;;;;;;;;;;5029752;28;1394;-69
2022/10/17 08:17:29;;;;;;;;;;;;;;;;;;5030734;28;1218;-69
2022/10/17 08:19:57;;;;;;;;;;;;;;;;;;5013163;28;1283;-68
2022/10/17 08:22:23;;;;;;;;;;;;;;;;;;5030419;28;1174;-69
2022/10/17 08:24:48;;;;;;;;;;;;;;;;;;5031139;28;864;-75
2022/10/17 08:27:13;;;;;;;;;;;;;;;;;;5033151;28;1965;-75
2022/10/17 08:29:39;;;;;;;;;;;;;;;;;;5014191;28;1449;-74
2022/10/17 08:32:05;;;;;;;;;;;;;;;;;;5014632;28;1315;-74
2022/10/17 08:34:30;;;;;;;;;;;;;;;;;;5032279;28;853;-75
2022/10/17 08:36:56;;;;;;;;;;;;;;;;;;5015173;28;1161;-74
2022/10/17 08:39:21;;;;;;;;;;;;;;;;;;5030950;28;860;-75
2022/10/17 08:41:58;;;;;;;;;;;;;;;;;;5032786;28;893;-75
2022/10/17 08:44:31;;;;;;;;;;;;;;;;;;5015936;28;1118;-75
2022/10/17 08:46:58;;;;;;;;;;;;;;;;;;5033833;28;1979;-75
2022/10/17 08:49:46;;;;;;;;;;;;;;;;;;5016033;28;1397;-75
2022/10/17 08:52:28;;;;;;;;;;;;;;;;;;5016169;28;1312;-75
2022/10/17 08:54:54;;;;;;;;;;;;;;;;;;5032240;28;904;-75
2022/10/17 08:57:19;;;;;;;;;;;;;;;;;;5031575;28;873;-75
2022/10/17 08:59:51;;;;;;;;;;;;;;;;;;5014636;28;1328;-75
2022/10/17 09:02:36;;;;;;;;;;;;;;;;;;5015109;28;1331;-75
2022/10/17 09:05:02;;;;;;;;;;;;;;;;;;5032579;28;908;-74
2022/10/17 09:07:27;;;;;;;;;;;;;;;;;;5014244;28;1967;-75
2022/10/17 09:10:14;;;;;;;;;;;;;;;;;;5014994;28;1514;-74
2022/10/17 09:12:51;;;;;;;;;;;;;;;;;;5007869;28;1313;-75
2022/10/17 09:15:16;;;;;;;;;;;;;;;;;;5014411;28;1483;-75
2022/10/17 09:17:54;;;;;;;;;;;;;;;;;;5014507;28;1264;-74
2022/10/17 09:20:19;;;;;;;;;;;;;;;;;;5031856;28;829;-75
2022/10/17 09:22:50;;;;;;;;;;;;;;;;;;5030315;28;2790;-75
2022/10/17 09:25:17;;;;;;;;;;;;;;;;;;5030869;28;1202;-75
2022/10/17 09:27:51;;;;;;;;;;;;;;;;;;5015556;28;1894;-75
2022/10/17 09:30:20;;;;;;;;;;;;;;;;;;5013624;28;1337;-75
2022/10/17 09:32:46;;;;;;;;;;;;;;;;;;5017173;28;1323;-75
2022/10/17 09:35:15;;;;;;;;;;;;;;;;;;5034774;28;947;-75
2022/10/17 09:37:40;;;;;;;;;;;;;;;;;;5018310;28;1431;-75
2022/10/17 09:40:07;;;;;;;;;;;;;;;;;;5035355;28;1248;-75
2022/10/17 09:42:34;;;;;;;;;;;;;;;;;;5016561;28;1367;-76
2022/10/17 09:45:29;;;;;;;;;;;;;;;;;;5017679;28;1205;-75
2022/10/17 09:47:54;;;;;;;;;;;;;;;;;;5017070;28;1910;-75
2022/10/17 09:50:21;;;;;;;;;;;;;;;;;;5016404;28;1177;-74
2022/10/17 09:52:48;;;;;;;;;;;;;;;;;;5016402;28;1300;-74
2022/10/17 09:55:24;;;;;;;;;;;;;;;;;;5033078;28;788;-75
2022/10/17 09:57:52;;;;;;;;;;;;;;;;;;5017195;28;1185;-75
2022/10/17 10:00:22;;;;;;;;;;;;;;;;;;5016257;28;1225;-75
2022/10/17 10:02:47;;;;;;;;;;;;;;;;;;5034706;28;872;-75
2022/10/17 10:05:18;;;;;;;;;;;;;;;;;;5033824;28;1016;-74
2022/10/17 10:07:59;;;;;;;;;;;;;;;;;;5017187;28;1895;-75
2022/10/17 10:10:25;;;;;;;;;;;;;;;;;;5016546;28;1176;-74
2022/10/17 10:13:16;;;;;;;;;;;;;;;;;;5034966;28;904;-75
2022/10/17 10:15:45;;;;;;;;;;;;;;;;;;5016291;28;1201;-75
2022/10/17 10:18:29;;;;;;;;;;;;;;;;;;5033820;28;909;-75
2022/10/17 10:21:03;;;;;;;;;;;;;;;;;;5016078;28;1553;-75
2022/10/17 10:23:28;;;;;;;;;;;;;;;;;;5012692;28;1298;-75
2022/10/17 10:25:55;;;;;;;;;;;;;;;;;;5028923;28;1407;-75
2022/10/17 10:28:22;;;;;;;;;;;;;;;;;;5013792;28;1902;-75
2022/10/17 10:30:50;;;;;;;;;;;;;;;;;;5012694;28;1522;-75
2022/10/17 10:33:18;;;;;;;;;;;;;;;;;;4996314;28;1547;-75
2022/10/17 10:35:50;;;;;;;;;;;;;;;;;;5013977;28;857;-75
2022/10/17 10:38:16;;;;;;;;;;;;;;;;;;4995880;28;1212;-75
2022/10/17 10:40:53;;;;;;;;;;;;;;;;;;5013998;28;1051;-75
2022/10/17 10:43:25;;;;;;;;;;;;;;;;;;5013892;28;967;-74
2022/10/17 10:45:51;;;;;;;;;;;;;;;;;;5013730;28;846;-74
2022/10/17 10:48:17;;;;;;;;;;;;;;;;;;5013852;28;1918;-74
2022/10/17 10:50:48;;;;;;;;;;;;;;;;;;5014288;28;1008;-75
2022/10/17 10:53:24;;;;;;;;;;;;;;;;;;5020167;28;1201;-76
2022/10/17 10:55:50;;;;;;;;;;;;;;;;;;5033016;28;922;-75
2022/10/17 10:58:21;;;;;;;;;;;;;;;;;;5032021;28;1267;-75
2022/10/17 11:00:48;;;;;;;;;;;;;;;;;;5031322;28;912;-75
2022/10/17 11:03:17;;;;;;;;;;;;;;;;;;5014001;28;1236;-74
2022/10/17 11:05:45;;;;;;;;;;;;;;;;;;5033224;28;1047;-74
2022/10/17 11:08:17;;;;;;;;;;;;;;;;;;5015028;28;1918;-75
2022/10/17 11:10:57;;;;;;;;;;;;;;;;;;5016131;28;1300;-74
2022/10/17 11:13:27;;;;;;;;;;;;;;;;;;5015077;28;1070;-74
2022/10/17 11:16:00;;;;;;;;;;;;;;;;;;5015155;28;1284;-74
2022/10/17 11:18:28;;;;;;;;;;;;;;;;;;5033061;28;876;-68
2022/10/17 11:20:59;;;;;;;;;;;;;;;;;;5013832;28;1264;-68
2022/10/17 11:23:32;;;;;;;;;;;;;;;;;;5014235;28;1197;-68
2022/10/17 11:26:03;;;;;;;;;;;;;;;;;;5031491;28;880;-68
2022/10/17 11:28:29;;;;;;;;;;;;;;;;;;5013389;28;1906;-68
2022/10/17 11:31:02;;;;;;;;;;;;;;;;;;5031330;28;1387;-68
2022/10/17 11:33:41;;;;;;;;;;;;;;;;;;5013845;28;1235;-68
2022/10/17 11:36:08;;;;;;;;;;;;;;;;;;5014547;28;1019;-68
2022/10/17 11:38:52;;;;;;;;;;;;;;;;;;5031598;28;850;-67
2022/10/17 11:41:25;;;;;;;;;;;;;;;;;;5031253;28;979;-68
2022/10/17 11:43:54;;;;;;;;;;;;;;;;;;5031362;28;849;-68
2022/10/17 11:46:24;;;;;;;;;;;;;;;;;;5031803;28;908;-75
2022/10/17 11:49:06;;;;;;;;;;;;;;;;;;5014853;28;1562;-74
2022/10/17 11:51:35;;;;;;;;;;;;;;;;;;5032725;28;809;-76
2022/10/17 11:54:12;;;;;;;;;;;;;;;;;;5014453;28;1233;-76
2022/10/17 11:56:49;;;;;;;;;;;;;;;;;;5033373;28;896;-76
2022/10/17 11:59:33;;;;;;;;;;;;;;;;;;5033353;28;881;-76
2022/10/17 12:02:11;;;;;;;;;;;;;;;;;;5033061;28;898;-76
2022/10/17 12:04:49;;;;;;;;;;;;;;;;;;5015771;28;1346;-76
2022/10/17 12:07:14;;;;;;;;;;;;;;;;;;5032911;28;1989;-76
2022/10/17 12:09:52;;;;;;;;;;;;;;;;;;5015179;28;1339;-78
2022/10/17 12:12:25;;;;;;;;;;;;;;;;;;5030024;28;1153;-75
2022/10/17 12:14:50;;;;;;;;;;;;;;;;;;5029704;28;1089;-75
2022/10/17 12:17:21;;;;;;;;;;;;;;;;;;5031248;28;1220;-74
2022/10/17 12:19:47;;;;;;;;;;;;;;;;;;5032820;28;1006;-75
2022/10/17 12:22:20;;;;;;;;;;;;;;;;;;5031788;28;987;-75
2022/10/17 12:24:54;;;;;;;;;;;;;;;;;;5033325;28;833;-74
2022/10/17 12:27:37;;;;;;;;;;;;;;;;;;5015202;28;1906;-73
2022/10/17 12:30:06;;;;;;;;;;;;;;;;;;5032724;28;892;-74
2022/10/17 12:32:32;;;;;;;;;;;;;;;;;;5014616;28;1323;-74
2022/10/17 12:34:58;;;;;;;;;;;;;;;;;;5014956;28;1306;-74
2022/10/17 12:37:41;;;;;;;;;;;;;;;;;;5015391;28;1220;-75
2022/10/17 12:40:25;;;;;;;;;;;;;;;;;;5015551;28;1200;-75
2022/10/17 12:42:50;;;;;;;;;;;;;;;;;;5015856;28;1133;-74
2022/10/17 12:45:35;;;;;;;;;;;;;;;;;;5017194;28;1177;-73
2022/10/17 12:48:00;;;;;;;;;;;;;;;;;;5018741;28;1914;-74
2022/10/17 12:50:44;;;;;;;;;;;;;;;;;;5038675;28;1070;-74
2022/10/17 12:53:12;;;;;;;;;;;;;;;;;;5039611;28;952;-73
2022/10/17 12:55:38;;;;;;;;;;;;;;;;;;5020743;28;1388;-74
2022/10/17 12:58:08;;;;;;;;;;;;;;;;;;5018652;28;1210;-74
2022/10/17 13:00:42;;;;;;;;;;;;;;;;;;5038244;28;1149;-73
2022/10/17 13:03:33;;;;;;;;;;;;;;;;;;5022377;28;1165;-74
2022/10/17 13:06:00;;;;;;;;;;;;;;;;;;5021540;28;1442;-73
2022/10/17 13:08:26;;;;;;;;;;;;;;;;;;5025335;28;1953;-73
2022/10/17 13:10:52;;;;;;;;;;;;;;;;;;5043646;28;891;-74
2022/10/17 13:13:19;;;;;;;;;;;;;;;;;;5042798;28;1007;-73
2022/10/17 13:15:54;;;;;;;;;;;;;;;;;;5042952;28;1172;-73
2022/10/17 13:18:24;;;;;;;;;;;;;;;;;;5048638;28;901;-74
2022/10/17 13:20:56;;;;;;;;;;;;;;;;;;5052793;28;1015;-73
2022/10/17 13:23:22;;;;;;;;;;;;;;;;;;5053513;28;982;-73
2022/10/17 13:26:00;;;;;;;;;;;;;;;;;;5047025;28;1235;-74
2022/10/17 13:28:27;;;;;;;;;;;;;;;;;;5043276;28;1903;-73
2022/10/17 13:31:04;;;;;;;;;;;;;;;;;;5039285;28;1090;-69
2022/10/17 13:33:31;;;;;;;;;;;;;;;;;;5029815;28;1220;-68
2022/10/17 13:35:57;;;;;;;;;;;;;;;;;;5030802;28;1216;-68
2022/10/17 13:38:24;;;;;;;;;;;;;;;;;;5014915;28;1316;-68
2022/10/17 13:40:50;;;;;;;;;;;;;;;;;;5034639;28;1197;-68
2022/10/17 13:43:18;;;;;;;;;;;;;;;;;;5016600;28;1217;-73
2022/10/17 13:45:45;;;;;;;;;;;;;;;;;;5036397;28;900;-73
2022/10/17 13:48:18;;;;;;;;;;;;;;;;;;5017932;28;1914;-73
2022/10/17 13:50:46;;;;;;;;;;;;;;;;;;5018495;28;1251;-73
2022/10/17 13:53:11;;;;;;;;;;;;;;;;;;5036055;28;908;-73
2022/10/17 13:55:36;;;;;;;;;;;;;;;;;;5036439;28;896;-72
2022/10/17 13:58:09;;;;;;;;;;;;;;;;;;5035330;28;916;-73
2022/10/17 14:00:34;;;;;;;;;;;;;;;;;;5034147;28;814;-73
2022/10/17 14:02:59;;;;;;;;;;;;;;;;;;5017595;28;1174;-74
2022/10/17 14:05:25;;;;;;;;;;;;;;;;;;5016626;28;1215;-74
2022/10/17 14:08:01;;;;;;;;;;;;;;;;;;5033327;28;1902;-74
2022/10/17 14:10:35;;;;;;;;;;;;;;;;;;5015299;28;1170;-74
2022/10/17 14:13:03;;;;;;;;;;;;;;;;;;5014871;28;1372;-74
2022/10/17 14:15:30;;;;;;;;;;;;;;;;;;5015846;28;1505;-73
2022/10/17 14:18:04;;;;;;;;;;;;;;;;;;5034637;28;955;-74
2022/10/17 14:20:29;;;;;;;;;;;;;;;;;;5016386;28;1280;-74
2022/10/17 14:22:55;;;;;;;;;;;;;;;;;;5015997;28;1435;-74
2022/10/17 14:25:28;;;;;;;;;;;;;;;;;;5034130;28;825;-74
2022/10/17 14:28:01;;;;;;;;;;;;;;;;;;5016193;28;1887;-74
2022/10/17 14:30:26;;;;;;;;;;;;;;;;;;5033151;28;1285;-74
2022/10/17 14:32:55;;;;;;;;;;;;;;;;;;5033985;28;885;-74
2022/10/17 14:35:21;;;;;;;;;;;;;;;;;;5033704;28;947;-74
2022/10/17 14:37:48;;;;;;;;;;;;;;;;;;5015601;28;1183;-74
2022/10/17 14:40:15;;;;;;;;;;;;;;;;;;5032938;28;901;-73
2022/10/17 14:42:40;;;;;;;;;;;;;;;;;;5016969;28;1224;-74
2022/10/17 14:45:07;;;;;;;;;;;;;;;;;;5034703;28;992;-74
2022/10/17 14:47:33;;;;;;;;;;;;;;;;;;5016273;28;1906;-74
2022/10/17 14:50:06;;;;;;;;;;;;;;;;;;5034694;28;901;-73
2022/10/17 14:52:33;;;;;;;;;;;;;;;;;;5015301;28;1259;-74
2022/10/17 14:54:59;;;;;;;;;;;;;;;;;;5015485;28;1284;-74
2022/10/17 14:57:26;;;;;;;;;;;;;;;;;;5015002;28;1368;-74
2022/10/17 14:59:53;;;;;;;;;;;;;;;;;;5033441;28;802;-74
2022/10/17 15:02:18;;;;;;;;;;;;;;;;;;5015168;28;1295;-72
2022/10/17 15:04:44;;;;;;;;;;;;;;;;;;5033948;28;872;-72
2022/10/17 15:07:13;;;;;;;;;;;;;;;;;;5014483;28;1898;-68
2022/10/17 15:09:39;;;;;;;;;;;;;;;;;;5015297;28;1291;-69
2022/10/17 15:12:06;;;;;;;;;;;;;;;;;;5031388;28;1139;-69
2022/10/17 15:14:32;;;;;;;;;;;;;;;;;;5032875;28;888;-69
2022/10/17 15:16:57;;;;;;;;;;;;;;;;;;5031306;28;979;-69
2022/10/17 15:19:23;;;;;;;;;;;;;;;;;;5031762;28;967;-69
2022/10/17 15:21:48;;;;;;;;;;;;;;;;;;5031487;28;1211;-69
2022/10/17 15:24:14;;;;;;;;;;;;;;;;;;5021609;28;4063;-69
2022/10/17 15:26:39;;;;;;;;;;;;;;;;;;5028670;28;3302;-69
2022/10/17 15:29:06;;;;;;;;;;;;;;;;;;5027963;28;3381;-69
2022/10/17 15:31:32;;;;;;;;;;;;;;;;;;5011178;28;1237;-69
2022/10/17 15:33:57;;;;;;;;;;;;;;;;;;5031811;28;917;-69
2022/10/17 15:36:30;;;;;;;;;;;;;;;;;;5032579;28;1268;-69
2022/10/17 15:38:57;;;;;;;;;;;;;;;;;;5031216;28;940;-69
2022/10/17 15:41:23;;;;;;;;;;;;;;;;;;5025146;28;3632;-69
2022/10/17 15:43:49;;;;;;;;;;;;;;;;;;5029362;28;3185;-69
2022/10/17 15:46:25;;;;;;;;;;;;;;;;;;5031018;28;813;-69
2022/10/17 15:48:50;;;;;;;;;;;;;;;;;;5031349;28;1906;-69
2022/10/17 15:51:16;;;;;;;;;;;;;;;;;;5026990;28;4136;-69
2022/10/17 15:53:41;;;;;;;;;;;;;;;;;;5027416;28;3417;-70
2022/10/17 15:56:07;;;;;;;;;;;;;;;;;;5012314;28;1027;-72
2022/10/17 15:58:41;;;;;;;;;;;;;;;;;;5025851;28;3672;-73
2022/10/17 16:01:14;;;;;;;;;;;;;;;;;;5047303;28;1267;-72
2022/10/17 16:03:40;;;;;;;;;;;;;;;;;;5030274;28;1224;-72
2022/10/17 16:06:05;;;;;;;;;;;;;;;;;;5046752;28;813;-72
2022/10/17 16:08:30;;;;;;;;;;;;;;;;;;5046789;28;1961;-72
2022/10/17 16:10:56;;;;;;;;;;;;;;;;;;5021545;28;3664;-72
2022/10/17 16:13:22;;;;;;;;;;;;;;;;;;5012738;28;1358;-72
2022/10/17 16:15:48;;;;;;;;;;;;;;;;;;5027406;28;4235;-71
2022/10/17 16:18:13;;;;;;;;;;;;;;;;;;5018839;28;3724;-72
2022/10/17 16:20:38;;;;;;;;;;;;;;;;;;5013803;28;829;-72
2022/10/17 16:23:04;;;;;;;;;;;;;;;;;;5012712;28;4077;-72
2022/10/17 16:25:30;;;;;;;;;;;;;;;;;;5012582;28;4152;-72
2022/10/17 16:27:57;;;;;;;;;;;;;;;;;;5029899;28;1963;-71
2022/10/17 16:30:23;;;;;;;;;;;;;;;;;;5020698;28;3563;-72
2022/10/17 16:32:48;;;;;;;;;;;;;;;;;;5010879;28;995;-72
2022/10/17 16:35:21;;;;;;;;;;;;;;;;;;4994150;28;1198;-72
2022/10/17 16:37:47;;;;;;;;;;;;;;;;;;5016226;28;826;-72
2022/10/17 16:40:13;;;;;;;;;;;;;;;;;;5014743;28;806;-72
2022/10/17 16:42:40;;;;;;;;;;;;;;;;;;5016478;28;826;-72
2022/10/17 16:45:06;;;;;;;;;;;;;;;;;;5014978;28;1284;-71
2022/10/17 16:47:31;;;;;;;;;;;;;;;;;;5016264;28;1977;-72
2022/10/17 16:49:56;;;;;;;;;;;;;;;;;;4999063;28;1324;-72
2022/10/17 16:52:22;;;;;;;;;;;;;;;;;;5014868;28;916;-72
2022/10/17 16:54:47;;;;;;;;;;;;;;;;;;4999564;28;1256;-73
2022/10/17 16:57:12;;;;;;;;;;;;;;;;;;4998816;28;1338;-74
2022/10/17 16:59:38;;;;;;;;;;;;;;;;;;4998740;28;1216;-70
2022/10/17 17:02:03;;;;;;;;;;;;;;;;;;5015871;28;833;-70
2022/10/17 17:04:29;;;;;;;;;;;;;;;;;;5013694;28;1444;-70
2022/10/17 17:06:54;;;;;;;;;;;;;;;;;;5015263;28;1914;-70
2022/10/17 17:09:22;;;;;;;;;;;;;;;;;;5013670;28;892;-70
2022/10/17 17:11:50;;;;;;;;;;;;;;;;;;5015210;28;921;-70
2022/10/17 17:14:16;;;;;;;;;;;;;;;;;;5029757;28;1233;-69
2022/10/17 17:16:42;;;;;;;;;;;;;;;;;;5013828;28;1318;-69